Malcom, Iowa
Current Conditions -  °F | °C
As of 9:55 AM on Wednesday 28 Jan 2015 (Local Time) from KGGI Reporting Station
Scattered Clouds Scattered Clouds  
Wind Chill: 20°   Ceiling: Unl
Heat Index: 32°   Visibility: 7mi
Dew Point: 29°   Wind: 21mph
Humidity: 87%   Direction: 130°SE
Pressure: 30"   Gusts: 25mph
Location:  41.71°N, 92.56°W
Report Text: KGGI 281555Z AUTO 13018G22KT 7SM SCT009 00/M02 A3000 RMK AO2 T00001019
Loading
Personal Weather Stations






























Interactive Weather Map New forecast layout! Learn more

10-Day Weather Forecast

Advertisements
Track Severe Weather on mobile